sensor_id;sensor_type;location;lat;lon;timestamp;pressure;altitude;pressure_sealevel;temperature;humidity
5883;BME280;2967;51.488;6.618;2022-10-14T00:03:12;101287.75;;;14.05;100.00
5883;BME280;2967;51.488;6.618;2022-10-14T00:08:15;101279.69;;;14.06;100.00
5883;BME280;2967;51.488;6.618;2022-10-14T00:13:17;101277.84;;;14.07;100.00
5883;BME280;2967;51.488;6.618;2022-10-14T00:18:22;101280.41;;;14.08;100.00
5883;BME280;2967;51.488;6.618;2022-10-14T00:23:25;101278.72;;;14.07;100.00
5883;BME280;2967;51.488;6.618;2022-10-14T00:28:28;101284.88;;;14.08;100.00
5883;BME280;2967;51.488;6.618;2022-10-14T00:33:32;101282.22;;;14.08;100.00
5883;BME280;2967;51.488;6.618;2022-10-14T00:38:35;101286.47;;;14.10;100.00
5883;BME280;2967;51.488;6.618;2022-10-14T00:43:56;101282.97;;;14.10;100.00
5883;BME280;2967;51.488;6.618;2022-10-14T00:49:05;101275.00;;;14.10;100.00
5883;BME280;2967;51.488;6.618;2022-10-14T00:54:10;101273.19;;;14.10;100.00
5883;BME280;2967;51.488;6.618;2022-10-14T00:59:15;101275.72;;;14.12;100.00
5883;BME280;2967;51.488;6.618;2022-10-14T01:04:19;101272.97;;;14.13;100.00
5883;BME280;2967;51.488;6.618;2022-10-14T01:09:26;101269.44;;;14.13;100.00
5883;BME280;2967;51.488;6.618;2022-10-14T01:14:34;101265.00;;;14.13;100.00
5883;BME280;2967;51.488;6.618;2022-10-14T01:20:03;101255.50;;;14.09;100.00
5883;BME280;2967;51.488;6.618;2022-10-14T01:25:14;101255.41;;;14.11;100.00
5883;BME280;2967;51.488;6.618;2022-10-14T01:30:23;101237.53;;;14.13;100.00
5883;BME280;2967;51.488;6.618;2022-10-14T01:35:35;101236.56;;;14.14;100.00
5883;BME280;2967;51.488;6.618;2022-10-14T01:40:46;101231.97;;;14.16;100.00
5883;BME280;2967;51.488;6.618;2022-10-14T01:45:55;101228.38;;;14.17;100.00
5883;BME280;2967;51.488;6.618;2022-10-14T01:51:03;101223.25;;;14.14;100.00
5883;BME280;2967;51.488;6.618;2022-10-14T01:56:08;101216.88;;;14.16;100.00
5883;BME280;2967;51.488;6.618;2022-10-14T02:01:14;101223.06;;;14.17;100.00
5883;BME280;2967;51.488;6.618;2022-10-14T02:06:22;101183.72;;;13.97;100.00
5883;BME280;2967;51.488;6.618;2022-10-14T02:11:30;101213.19;;;14.19;100.00
5883;BME280;2967;51.488;6.618;2022-10-14T02:16:39;101212.22;;;14.20;100.00
5883;BME280;2967;51.488;6.618;2022-10-14T02:21:47;101212.94;;;14.22;100.00
5883;BME280;2967;51.488;6.618;2022-10-14T02:26:54;101204.00;;;14.23;100.00
5883;BME280;2967;51.488;6.618;2022-10-14T02:32:02;101193.59;;;14.20;100.00
5883;BME280;2967;51.488;6.618;2022-10-14T02:37:06;101184.66;;;14.21;100.00
5883;BME280;2967;51.488;6.618;2022-10-14T02:42:09;101181.13;;;14.20;100.00
5883;BME280;2967;51.488;6.618;2022-10-14T02:47:14;101178.47;;;14.20;100.00
5883;BME280;2967;51.488;6.618;2022-10-14T02:52:17;101176.09;;;14.16;100.00
5883;BME280;2967;51.488;6.618;2022-10-14T02:57:20;101168.97;;;14.16;100.00
5883;BME280;2967;51.488;6.618;2022-10-14T03:02:24;101161.44;;;14.10;100.00
5883;BME280;2967;51.488;6.618;2022-10-14T03:07:26;101156.66;;;14.15;100.00
5883;BME280;2967;51.488;6.618;2022-10-14T03:12:32;101159.31;;;14.15;100.00
5883;BME280;2967;51.488;6.618;2022-10-14T03:17:36;101152.16;;;14.16;100.00
5883;BME280;2967;51.488;6.618;2022-10-14T03:22:40;101151.22;;;14.17;100.00
5883;BME280;2967;51.488;6.618;2022-10-14T03:27:43;101139.63;;;14.18;100.00
5883;BME280;2967;51.488;6.618;2022-10-14T03:32:49;101151.13;;;14.18;100.00
5883;BME280;2967;51.488;6.618;2022-10-14T03:37:51;101143.44;;;14.26;100.00
5883;BME280;2967;51.488;6.618;2022-10-14T03:43:01;101145.22;;;14.26;100.00
5883;BME280;2967;51.488;6.618;2022-10-14T03:48:15;101143.66;;;14.23;100.00
5883;BME280;2967;51.488;6.618;2022-10-14T03:53:18;101144.59;;;14.22;100.00
5883;BME280;2967;51.488;6.618;2022-10-14T03:58:21;101140.13;;;14.23;100.00
5883;BME280;2967;51.488;6.618;2022-10-14T04:03:31;101137.25;;;14.26;100.00
5883;BME280;2967;51.488;6.618;2022-10-14T04:08:34;101140.03;;;14.24;100.00
5883;BME280;2967;51.488;6.618;2022-10-14T04:13:50;101142.56;;;14.26;100.00
5883;BME280;2967;51.488;6.618;2022-10-14T04:18:54;101137.25;;;14.26;100.00
5883;BME280;2967;51.488;6.618;2022-10-14T04:23:57;101137.97;;;14.28;100.00
5883;BME280;2967;51.488;6.618;2022-10-14T04:29:17;101132.78;;;14.26;100.00
5883;BME280;2967;51.488;6.618;2022-10-14T04:34:29;101126.38;;;14.29;100.00
5883;BME280;2967;51.488;6.618;2022-10-14T04:39:32;101126.38;;;14.29;100.00
5883;BME280;2967;51.488;6.618;2022-10-14T04:44:36;101122.00;;;14.28;100.00
5883;BME280;2967;51.488;6.618;2022-10-14T04:49:41;101122.88;;;14.28;100.00
5883;BME280;2967;51.488;6.618;2022-10-14T04:54:49;101108.94;;;14.25;100.00
5883;BME280;2967;51.488;6.618;2022-10-14T05:00:03;101109.66;;;14.27;100.00
5883;BME280;2967;51.488;6.618;2022-10-14T05:05:26;101100.72;;;14.28;100.00
5883;BME280;2967;51.488;6.618;2022-10-14T05:10:31;101092.13;;;14.24;100.00
5883;BME280;2967;51.488;6.618;2022-10-14T05:15:37;101096.69;;;14.22;100.00
5883;BME280;2967;51.488;6.618;2022-10-14T05:20:45;101095.00;;;14.21;100.00
5883;BME280;2967;51.488;6.618;2022-10-14T05:25:48;101084.50;;;14.20;100.00
5883;BME280;2967;51.488;6.618;2022-10-14T05:30:53;101079.19;;;14.20;100.00
5883;BME280;2967;51.488;6.618;2022-10-14T05:35:57;101083.53;;;14.21;100.00
5883;BME280;2967;51.488;6.618;2022-10-14T05:41:04;101078.94;;;14.23;100.00
5883;BME280;2967;51.488;6.618;2022-10-14T05:46:09;101070.72;;;14.26;100.00
5883;BME280;2967;51.488;6.618;2022-10-14T05:51:17;101058.13;;;14.28;100.00
5883;BME280;2967;51.488;6.618;2022-10-14T05:56:25;101045.59;;;14.30;100.00
5883;BME280;2967;51.488;6.618;2022-10-14T06:01:28;101046.22;;;14.33;100.00
5883;BME280;2967;51.488;6.618;2022-10-14T06:06:33;101052.97;;;14.37;100.00
5883;BME280;2967;51.488;6.618;2022-10-14T06:11:37;101048.63;;;14.36;100.00
5883;BME280;2967;51.488;6.618;2022-10-14T06:16:39;101045.97;;;14.36;100.00
5883;BME280;2967;51.488;6.618;2022-10-14T06:21:44;101039.91;;;14.34;100.00
5883;BME280;2967;51.488;6.618;2022-10-14T06:26:47;101050.22;;;14.39;100.00
5883;BME280;2967;51.488;6.618;2022-10-14T06:31:49;101054.56;;;14.40;100.00
5883;BME280;2967;51.488;6.618;2022-10-14T06:36:53;101044.13;;;14.37;100.00
5883;BME280;2967;51.488;6.618;2022-10-14T06:42:02;101036.03;;;14.38;100.00
5883;BME280;2967;51.488;6.618;2022-10-14T06:47:13;101026.25;;;14.39;100.00
5883;BME280;2967;51.488;6.618;2022-10-14T06:52:17;101027.72;;;14.43;100.00
5883;BME280;2967;51.488;6.618;2022-10-14T06:57:19;101030.25;;;14.44;100.00
5883;BME280;2967;51.488;6.618;2022-10-14T07:02:22;101009.56;;;14.48;100.00
5883;BME280;2967;51.488;6.618;2022-10-14T07:07:27;101011.63;;;14.44;100.00
5883;BME280;2967;51.488;6.618;2022-10-14T07:12:29;101003.28;;;14.49;100.00
5883;BME280;2967;51.488;6.618;2022-10-14T07:17:32;101008.63;;;14.49;100.00
5883;BME280;2967;51.488;6.618;2022-10-14T07:22:36;101013.81;;;14.50;100.00
5883;BME280;2967;51.488;6.618;2022-10-14T07:27:39;101010.41;;;14.48;100.00
5883;BME280;2967;51.488;6.618;2022-10-14T07:32:42;101006.78;;;14.49;100.00
5883;BME280;2967;51.488;6.618;2022-10-14T07:37:46;101009.09;;;14.54;100.00
5883;BME280;2967;51.488;6.618;2022-10-14T07:42:50;101023.38;;;14.53;100.00
5883;BME280;2967;51.488;6.618;2022-10-14T07:47:53;101023.84;;;14.58;100.00
5883;BME280;2967;51.488;6.618;2022-10-14T07:52:57;101019.75;;;14.54;100.00
5883;BME280;2967;51.488;6.618;2022-10-14T07:58:01;101019.38;;;14.58;100.00
5883;BME280;2967;51.488;6.618;2022-10-14T08:03:04;101004.28;;;14.59;100.00
5883;BME280;2967;51.488;6.618;2022-10-14T08:08:08;101007.78;;;14.70;100.00
5883;BME280;2967;51.488;6.618;2022-10-14T08:13:11;101001.63;;;14.70;100.00
5883;BME280;2967;51.488;6.618;2022-10-14T08:18:13;101002.09;;;14.75;100.00
5883;BME280;2967;51.488;6.618;2022-10-14T08:23:17;101001.63;;;14.81;100.00
5883;BME280;2967;51.488;6.618;2022-10-14T08:28:20;101000.16;;;14.88;100.00
5883;BME280;2967;51.488;6.618;2022-10-14T08:33:23;100987.06;;;14.96;100.00
5883;BME280;2967;51.488;6.618;2022-10-14T08:38:27;100965.53;;;14.99;100.00
5883;BME280;2967;51.488;6.618;2022-10-14T08:43:32;100971.56;;;15.12;100.00
5883;BME280;2967;51.488;6.618;2022-10-14T08:48:38;100972.78;;;15.19;100.00
5883;BME280;2967;51.488;6.618;2022-10-14T08:53:44;100968.78;;;15.24;100.00
5883;BME280;2967;51.488;6.618;2022-10-14T08:58:49;100969.50;;;15.26;100.00
5883;BME280;2967;51.488;6.618;2022-10-14T09:03:56;100964.66;;;15.31;100.00
5883;BME280;2967;51.488;6.618;2022-10-14T09:09:05;100964.00;;;15.28;100.00
5883;BME280;2967;51.488;6.618;2022-10-14T09:14:12;100959.91;;;15.35;100.00
5883;BME280;2967;51.488;6.618;2022-10-14T09:19:22;100953.38;;;15.39;100.00
5883;BME280;2967;51.488;6.618;2022-10-14T09:24:33;100942.09;;;15.46;100.00
5883;BME280;2967;51.488;6.618;2022-10-14T09:29:41;100951.47;;;15.61;100.00
5883;BME280;2967;51.488;6.618;2022-10-14T09:34:46;100944.97;;;15.54;100.00
5883;BME280;2967;51.488;6.618;2022-10-14T09:39:53;100957.19;;;15.57;100.00
5883;BME280;2967;51.488;6.618;2022-10-14T09:45:05;100958.03;;;15.57;100.00
5883;BME280;2967;51.488;6.618;2022-10-14T09:50:20;100951.09;;;15.66;100.00
5883;BME280;2967;51.488;6.618;2022-10-14T09:55:25;100937.53;;;15.69;100.00
5883;BME280;2967;51.488;6.618;2022-10-14T10:00:30;100933.00;;;15.69;100.00
5883;BME280;2967;51.488;6.618;2022-10-14T10:05:35;100923.81;;;15.62;100.00
5883;BME280;2967;51.488;6.618;2022-10-14T10:10:39;100931.91;;;15.72;100.00
5883;BME280;2967;51.488;6.618;2022-10-14T10:15:55;100924.19;;;15.69;100.00
5883;BME280;2967;51.488;6.618;2022-10-14T10:21:00;100925.88;;;15.70;100.00
5883;BME280;2967;51.488;6.618;2022-10-14T10:26:18;100920.16;;;15.74;100.00
5883;BME280;2967;51.488;6.618;2022-10-14T10:31:36;100913.19;;;15.83;100.00
5883;BME280;2967;51.488;6.618;2022-10-14T10:36:48;100909.88;;;15.90;100.00
5883;BME280;2967;51.488;6.618;2022-10-14T10:42:04;100898.22;;;15.91;100.00
5883;BME280;2967;51.488;6.618;2022-10-14T10:47:21;100898.00;;;15.83;100.00
5883;BME280;2967;51.488;6.618;2022-10-14T10:52:33;100898.63;;;16.07;100.00
5883;BME280;2967;51.488;6.618;2022-10-14T10:57:50;100890.03;;;16.03;100.00
5883;BME280;2967;51.488;6.618;2022-10-14T11:03:06;100891.66;;;15.95;100.00
5883;BME280;2967;51.488;6.618;2022-10-14T11:08:22;100878.91;;;15.98;100.00
5883;BME280;2967;51.488;6.618;2022-10-14T11:13:56;100869.16;;;15.88;100.00
5883;BME280;2967;51.488;6.618;2022-10-14T11:19:06;100866.59;;;15.87;100.00
5883;BME280;2967;51.488;6.618;2022-10-14T11:24:23;100853.72;;;15.71;100.00
5883;BME280;2967;51.488;6.618;2022-10-14T11:29:39;100857.25;;;15.72;100.00
5883;BME280;2967;51.488;6.618;2022-10-14T11:34:54;100847.66;;;15.69;100.00
5883;BME280;2967;51.488;6.618;2022-10-14T11:40:05;100833.50;;;15.69;100.00
5883;BME280;2967;51.488;6.618;2022-10-14T11:45:40;100832.78;;;15.67;100.00
5883;BME280;2967;51.488;6.618;2022-10-14T11:50:46;100830.97;;;15.67;100.00
5883;BME280;2967;51.488;6.618;2022-10-14T11:55:57;100830.56;;;15.72;100.00
5883;BME280;2967;51.488;6.618;2022-10-14T12:01:04;100826.66;;;15.76;100.00
5883;BME280;2967;51.488;6.618;2022-10-14T12:06:11;100817.56;;;15.78;100.00
5883;BME280;2967;51.488;6.618;2022-10-14T12:11:25;100809.03;;;15.84;100.00
5883;BME280;2967;51.488;6.618;2022-10-14T12:16:31;100804.41;;;15.86;100.00
5883;BME280;2967;51.488;6.618;2022-10-14T12:21:39;100804.25;;;15.88;100.00
5883;BME280;2967;51.488;6.618;2022-10-14T12:26:52;100797.13;;;15.88;100.00
5883;BME280;2967;51.488;6.618;2022-10-14T12:32:17;100788.00;;;15.91;100.00
5883;BME280;2967;51.488;6.618;2022-10-14T12:37:48;100779.31;;;15.89;100.00
5883;BME280;2967;51.488;6.618;2022-10-14T12:42:59;100771.16;;;15.90;100.00
5883;BME280;2967;51.488;6.618;2022-10-14T12:48:10;100772.72;;;15.93;100.00
5883;BME280;2967;51.488;6.618;2022-10-14T12:53:20;100761.75;;;15.95;100.00
5883;BME280;2967;51.488;6.618;2022-10-14T12:58:27;100767.56;;;16.00;100.00
5883;BME280;2967;51.488;6.618;2022-10-14T13:03:34;100744.25;;;16.02;100.00
5883;BME280;2967;51.488;6.618;2022-10-14T13:08:38;100729.50;;;16.08;100.00
5883;BME280;2967;51.488;6.618;2022-10-14T13:13:59;100726.16;;;16.15;100.00
5883;BME280;2967;51.488;6.618;2022-10-14T13:19:03;100721.53;;;16.17;100.00
5883;BME280;2967;51.488;6.618;2022-10-14T13:24:11;100722.78;;;16.13;100.00
5883;BME280;2967;51.488;6.618;2022-10-14T13:29:24;100705.63;;;16.06;100.00
5883;BME280;2967;51.488;6.618;2022-10-14T13:34:43;100707.59;;;16.04;100.00
5883;BME280;2967;51.488;6.618;2022-10-14T13:39:50;100709.84;;;15.99;100.00
5883;BME280;2967;51.488;6.618;2022-10-14T13:45:02;100701.38;;;15.94;100.00
5883;BME280;2967;51.488;6.618;2022-10-14T13:50:09;100700.69;;;15.93;100.00
5883;BME280;2967;51.488;6.618;2022-10-14T13:55:15;100703.91;;;15.96;100.00
5883;BME280;2967;51.488;6.618;2022-10-14T14:00:26;100663.53;;;15.71;100.00
5883;BME280;2967;51.488;6.618;2022-10-14T14:05:46;100698.72;;;15.94;100.00
5883;BME280;2967;51.488;6.618;2022-10-14T14:10:52;100695.91;;;15.96;100.00
5883;BME280;2967;51.488;6.618;2022-10-14T14:16:19;100694.81;;;15.98;100.00
5883;BME280;2967;51.488;6.618;2022-10-14T14:21:26;100687.34;;;16.02;100.00
5883;BME280;2967;51.488;6.618;2022-10-14T14:26:33;100680.22;;;16.02;100.00
5883;BME280;2967;51.488;6.618;2022-10-14T14:31:38;100667.56;;;16.04;100.00
5883;BME280;2967;51.488;6.618;2022-10-14T14:37:02;100667.28;;;16.07;100.00
5883;BME280;2967;51.488;6.618;2022-10-14T14:42:26;100660.66;;;16.02;100.00
5883;BME280;2967;51.488;6.618;2022-10-14T14:47:29;100658.28;;;15.99;100.00
5883;BME280;2967;51.488;6.618;2022-10-14T14:52:34;100652.94;;;15.99;100.00
5883;BME280;2967;51.488;6.618;2022-10-14T14:57:38;100653.66;;;16.01;100.00
5883;BME280;2967;51.488;6.618;2022-10-14T15:02:42;100651.69;;;16.03;100.00
5883;BME280;2967;51.488;6.618;2022-10-14T15:07:48;100651.13;;;15.99;100.00
5883;BME280;2967;51.488;6.618;2022-10-14T15:12:51;100660.81;;;16.00;100.00
5883;BME280;2967;51.488;6.618;2022-10-14T15:18:09;100641.28;;;16.00;100.00
5883;BME280;2967;51.488;6.618;2022-10-14T15:23:40;100646.34;;;16.03;100.00
5883;BME280;2967;51.488;6.618;2022-10-14T15:28:43;100626.13;;;16.00;100.00
5883;BME280;2967;51.488;6.618;2022-10-14T15:33:47;100626.25;;;15.99;100.00
5883;BME280;2967;51.488;6.618;2022-10-14T15:38:55;100622.63;;;16.00;100.00
5883;BME280;2967;51.488;6.618;2022-10-14T15:44:00;100622.91;;;15.97;100.00
5883;BME280;2967;51.488;6.618;2022-10-14T15:49:11;100619.13;;;15.99;100.00
5883;BME280;2967;51.488;6.618;2022-10-14T15:54:16;100614.78;;;15.98;100.00
5883;BME280;2967;51.488;6.618;2022-10-14T15:59:20;100614.78;;;15.98;100.00
5883;BME280;2967;51.488;6.618;2022-10-14T16:04:23;100617.69;;;15.95;100.00
5883;BME280;2967;51.488;6.618;2022-10-14T16:09:29;100610.66;;;15.94;100.00
5883;BME280;2967;51.488;6.618;2022-10-14T16:14:33;100607.19;;;15.94;100.00
5883;BME280;2967;51.488;6.618;2022-10-14T16:19:36;100618.69;;;15.94;100.00
5883;BME280;2967;51.488;6.618;2022-10-14T16:24:42;100610.78;;;15.93;100.00
5883;BME280;2967;51.488;6.618;2022-10-14T16:29:44;100609.00;;;15.93;100.00
5883;BME280;2967;51.488;6.618;2022-10-14T16:34:47;100599.72;;;15.88;100.00
5883;BME280;2967;51.488;6.618;2022-10-14T16:39:51;100601.25;;;15.91;100.00
5883;BME280;2967;51.488;6.618;2022-10-14T16:44:54;100603.94;;;15.91;100.00
5883;BME280;2967;51.488;6.618;2022-10-14T16:49:57;100605.16;;;15.87;100.00
5883;BME280;2967;51.488;6.618;2022-10-14T16:55:01;100611.50;;;15.86;100.00
5883;BME280;2967;51.488;6.618;2022-10-14T17:00:04;100616.25;;;15.82;100.00
5883;BME280;2967;51.488;6.618;2022-10-14T17:05:08;100623.72;;;15.79;100.00
5883;BME280;2967;51.488;6.618;2022-10-14T17:10:12;100624.47;;;15.60;100.00
5883;BME280;2967;51.488;6.618;2022-10-14T17:15:15;100628.50;;;15.55;100.00
5883;BME280;2967;51.488;6.618;2022-10-14T17:20:18;100620.22;;;15.48;100.00
5883;BME280;2967;51.488;6.618;2022-10-14T17:25:22;100624.56;;;15.49;100.00
5883;BME280;2967;51.488;6.618;2022-10-14T17:30:24;100620.78;;;15.52;100.00
5883;BME280;2967;51.488;6.618;2022-10-14T17:35:27;100623.59;;;15.50;100.00
5883;BME280;2967;51.488;6.618;2022-10-14T17:40:32;100595.25;;;15.49;100.00
5883;BME280;2967;51.488;6.618;2022-10-14T17:45:34;100601.69;;;15.47;100.00
5883;BME280;2967;51.488;6.618;2022-10-14T17:50:38;100607.28;;;15.44;100.00
5883;BME280;2967;51.488;6.618;2022-10-14T17:55:42;100603.91;;;15.42;100.00
5883;BME280;2967;51.488;6.618;2022-10-14T18:00:44;100514.47;;;14.89;100.00
5883;BME280;2967;51.488;6.618;2022-10-14T18:05:47;100600.56;;;15.40;100.00
5883;BME280;2967;51.488;6.618;2022-10-14T18:10:51;100598.41;;;15.34;100.00
5883;BME280;2967;51.488;6.618;2022-10-14T18:15:54;100612.31;;;15.37;100.00
5883;BME280;2967;51.488;6.618;2022-10-14T18:20:57;100614.84;;;15.39;100.00
5883;BME280;2967;51.488;6.618;2022-10-14T18:26:04;100611.75;;;15.34;100.00
5883;BME280;2967;51.488;6.618;2022-10-14T18:31:14;100608.84;;;15.26;100.00
5883;BME280;2967;51.488;6.618;2022-10-14T18:36:19;100615.53;;;15.11;100.00
5883;BME280;2967;51.488;6.618;2022-10-14T18:41:25;100597.38;;;15.05;100.00
5883;BME280;2967;51.488;6.618;2022-10-14T18:46:30;100596.56;;;15.04;100.00
5883;BME280;2967;51.488;6.618;2022-10-14T18:51:35;100594.59;;;15.06;100.00
5883;BME280;2967;51.488;6.618;2022-10-14T18:56:40;100569.66;;;15.07;100.00
5883;BME280;2967;51.488;6.618;2022-10-14T19:01:43;100570.31;;;15.00;100.00
5883;BME280;2967;51.488;6.618;2022-10-14T19:06:46;100576.63;;;14.99;100.00
5883;BME280;2967;51.488;6.618;2022-10-14T19:11:51;100591.06;;;15.06;100.00
5883;BME280;2967;51.488;6.618;2022-10-14T19:16:53;100585.75;;;15.06;100.00
5883;BME280;2967;51.488;6.618;2022-10-14T19:21:56;100572.19;;;15.09;100.00
5883;BME280;2967;51.488;6.618;2022-10-14T19:27:01;100582.69;;;15.10;100.00
5883;BME280;2967;51.488;6.618;2022-10-14T19:32:03;100588.03;;;15.10;100.00
5883;BME280;2967;51.488;6.618;2022-10-14T19:37:06;100580.69;;;15.03;100.00
5883;BME280;2967;51.488;6.618;2022-10-14T19:42:10;100568.34;;;15.02;100.00
5883;BME280;2967;51.488;6.618;2022-10-14T19:47:13;100560.75;;;14.97;100.00
5883;BME280;2967;51.488;6.618;2022-10-14T19:52:16;100560.38;;;15.02;100.00
5883;BME280;2967;51.488;6.618;2022-10-14T19:57:19;100554.34;;;15.00;100.00
5883;BME280;2967;51.488;6.618;2022-10-14T20:02:22;100550.22;;;14.96;100.00
5883;BME280;2967;51.488;6.618;2022-10-14T20:07:25;100539.56;;;14.96;100.00
5883;BME280;2967;51.488;6.618;2022-10-14T20:12:29;100564.81;;;14.92;100.00
5883;BME280;2967;51.488;6.618;2022-10-14T20:17:32;100564.53;;;14.95;100.00
5883;BME280;2967;51.488;6.618;2022-10-14T20:22:35;100545.69;;;14.87;100.00
5883;BME280;2967;51.488;6.618;2022-10-14T20:27:39;100544.16;;;14.84;100.00
5883;BME280;2967;51.488;6.618;2022-10-14T20:32:42;100525.63;;;14.83;100.00
5883;BME280;2967;51.488;6.618;2022-10-14T20:37:44;100543.50;;;14.92;100.00
5883;BME280;2967;51.488;6.618;2022-10-14T20:42:48;100545.97;;;14.84;100.00
5883;BME280;2967;51.488;6.618;2022-10-14T20:47:51;100538.50;;;14.78;100.00
5883;BME280;2967;51.488;6.618;2022-10-14T20:52:54;100536.25;;;14.73;100.00
5883;BME280;2967;51.488;6.618;2022-10-14T20:57:58;100530.59;;;14.67;100.00
5883;BME280;2967;51.488;6.618;2022-10-14T21:03:01;100539.75;;;14.74;100.00
5883;BME280;2967;51.488;6.618;2022-10-14T21:08:03;100532.16;;;14.69;100.00
5883;BME280;2967;51.488;6.618;2022-10-14T21:13:07;100531.06;;;14.72;100.00
5883;BME280;2967;51.488;6.618;2022-10-14T21:18:10;100543.66;;;14.70;100.00
5883;BME280;2967;51.488;6.618;2022-10-14T21:23:12;100528.31;;;14.62;100.00
5883;BME280;2967;51.488;6.618;2022-10-14T21:28:16;100536.78;;;14.67;100.00
5883;BME280;2967;51.488;6.618;2022-10-14T21:33:19;100526.25;;;14.66;100.00
5883;BME280;2967;51.488;6.618;2022-10-14T21:38:21;100536.78;;;14.67;100.00
5883;BME280;2967;51.488;6.618;2022-10-14T21:43:26;100526.94;;;14.68;100.00
5883;BME280;2967;51.488;6.618;2022-10-14T21:48:29;100532.28;;;14.68;100.00
5883;BME280;2967;51.488;6.618;2022-10-14T21:53:33;100514.25;;;14.51;100.00
5883;BME280;2967;51.488;6.618;2022-10-14T21:58:37;100538.97;;;14.62;100.00
5883;BME280;2967;51.488;6.618;2022-10-14T22:03:40;100534.50;;;14.63;100.00
5883;BME280;2967;51.488;6.618;2022-10-14T22:08:45;100519.03;;;14.57;100.00
5883;BME280;2967;51.488;6.618;2022-10-14T22:13:51;100524.72;;;14.63;100.00
5883;BME280;2967;51.488;6.618;2022-10-14T22:18:57;100532.53;;;14.65;100.00
5883;BME280;2967;51.488;6.618;2022-10-14T22:24:00;100528.06;;;14.65;100.00
5883;BME280;2967;51.488;6.618;2022-10-14T22:29:06;100537.16;;;14.63;100.00
5883;BME280;2967;51.488;6.618;2022-10-14T22:34:12;100525.66;;;14.62;100.00
5883;BME280;2967;51.488;6.618;2022-10-14T22:39:15;100523.13;;;14.61;100.00
5883;BME280;2967;51.488;6.618;2022-10-14T22:44:20;100521.88;;;14.65;100.00
5883;BME280;2967;51.488;6.618;2022-10-14T22:49:22;100512.09;;;14.65;100.00
5883;BME280;2967;51.488;6.618;2022-10-14T22:54:25;100514.88;;;14.64;100.00
5883;BME280;2967;51.488;6.618;2022-10-14T22:59:29;100517.28;;;14.67;100.00
5883;BME280;2967;51.488;6.618;2022-10-14T23:04:32;100517.28;;;14.67;100.00
5883;BME280;2967;51.488;6.618;2022-10-14T23:09:35;100512.69;;;14.69;100.00
5883;BME280;2967;51.488;6.618;2022-10-14T23:14:39;100509.69;;;14.62;100.00
5883;BME280;2967;51.488;6.618;2022-10-14T23:19:41;100511.50;;;14.62;100.00
5883;BME280;2967;51.488;6.618;2022-10-14T23:24:44;100505.91;;;14.65;100.00
5883;BME280;2967;51.488;6.618;2022-10-14T23:29:48;100495.53;;;14.62;100.00
5883;BME280;2967;51.488;6.618;2022-10-14T23:34:51;100506.63;;;14.67;100.00
5883;BME280;2967;51.488;6.618;2022-10-14T23:39:54;100495.53;;;14.62;100.00
5883;BME280;2967;51.488;6.618;2022-10-14T23:44:58;100495.53;;;14.62;100.00
5883;BME280;2967;51.488;6.618;2022-10-14T23:50:00;100483.88;;;14.53;100.00
5883;BME280;2967;51.488;6.618;2022-10-14T23:55:04;100497.75;;;14.57;100.00
